sensor_id;sensor_type;location;lat;lon;timestamp;pressure;altitude;pressure_sealevel;temperature;humidity
42001;BME280;27689;48.390;10.856;2023-01-19T00:00:19;94965.03;;;-0.69;100.00
42001;BME280;27689;48.390;10.856;2023-01-19T00:03:04;94975.31;;;-0.69;100.00
42001;BME280;27689;48.390;10.856;2023-01-19T00:05:48;94976.88;;;-0.67;100.00
42001;BME280;27689;48.390;10.856;2023-01-19T00:08:31;94973.56;;;-0.69;100.00
42001;BME280;27689;48.390;10.856;2023-01-19T00:11:16;94977.22;;;-0.48;100.00
42001;BME280;27689;48.390;10.856;2023-01-19T00:14:00;94980.06;;;-0.63;100.00
42001;BME280;27689;48.390;10.856;2023-01-19T00:16:44;94982.28;;;-0.59;100.00
42001;BME280;27689;48.390;10.856;2023-01-19T00:19:29;94983.44;;;-0.63;100.00
42001;BME280;27689;48.390;10.856;2023-01-19T00:22:13;94977.13;;;-0.59;100.00
42001;BME280;27689;48.390;10.856;2023-01-19T00:24:57;94988.50;;;-0.61;100.00
42001;BME280;27689;48.390;10.856;2023-01-19T00:27:41;94989.00;;;-0.32;99.98
42001;BME280;27689;48.390;10.856;2023-01-19T00:30:25;94985.44;;;-0.43;99.15
42001;BME280;27689;48.390;10.856;2023-01-19T00:33:09;94990.16;;;-0.37;99.79
42001;BME280;27689;48.390;10.856;2023-01-19T00:35:56;94993.97;;;-0.42;98.67
42001;BME280;27689;48.390;10.856;2023-01-19T00:38:40;94989.31;;;-0.61;99.85
42001;BME280;27689;48.390;10.856;2023-01-19T00:41:24;94990.47;;;-0.41;98.71
42001;BME280;27689;48.390;10.856;2023-01-19T00:44:27;94996.69;;;-0.56;100.00
42001;BME280;27689;48.390;10.856;2023-01-19T00:47:11;94994.13;;;-0.56;99.62
42001;BME280;27689;48.390;10.856;2023-01-19T00:49:55;95002.75;;;-0.57;100.00
42001;BME280;27689;48.390;10.856;2023-01-19T00:52:40;95004.94;;;-0.64;99.70
42001;BME280;27689;48.390;10.856;2023-01-19T00:55:24;95008.44;;;-0.65;100.00
42001;BME280;27689;48.390;10.856;2023-01-19T00:58:08;95007.31;;;-0.61;99.45
42001;BME280;27689;48.390;10.856;2023-01-19T01:00:52;95016.16;;;-0.65;99.62
42001;BME280;27689;48.390;10.856;2023-01-19T01:03:36;95017.31;;;-0.82;100.00
42001;BME280;27689;48.390;10.856;2023-01-19T01:06:21;95016.06;;;-0.89;100.00
42001;BME280;27689;48.390;10.856;2023-01-19T01:09:05;95027.72;;;-0.96;100.00
42001;BME280;27689;48.390;10.856;2023-01-19T01:11:54;95025.78;;;-0.92;100.00
42001;BME280;27689;48.390;10.856;2023-01-19T01:14:38;95032.94;;;-0.85;100.00
42001;BME280;27689;48.390;10.856;2023-01-19T01:17:22;95035.84;;;-0.89;100.00
42001;BME280;27689;48.390;10.856;2023-01-19T01:20:07;95042.94;;;-0.93;100.00
42001;BME280;27689;48.390;10.856;2023-01-19T01:22:52;95044.59;;;-0.92;100.00
42001;BME280;27689;48.390;10.856;2023-01-19T01:25:36;95044.50;;;-0.90;100.00
42001;BME280;27689;48.390;10.856;2023-01-19T01:28:20;95047.75;;;-0.88;100.00
42001;BME280;27689;48.390;10.856;2023-01-19T01:31:04;95047.34;;;-0.95;100.00
42001;BME280;27689;48.390;10.856;2023-01-19T01:33:47;95053.50;;;-0.85;100.00
42001;BME280;27689;48.390;10.856;2023-01-19T01:36:31;95057.44;;;-0.92;100.00
42001;BME280;27689;48.390;10.856;2023-01-19T01:39:16;95062.47;;;-0.90;100.00
42001;BME280;27689;48.390;10.856;2023-01-19T01:42:00;95067.09;;;-0.83;100.00
42001;BME280;27689;48.390;10.856;2023-01-19T01:44:55;95061.94;;;-0.83;100.00
42001;BME280;27689;48.390;10.856;2023-01-19T01:47:44;95064.41;;;-0.81;100.00
42001;BME280;27689;48.390;10.856;2023-01-19T01:50:31;95057.31;;;-0.78;99.32
42001;BME280;27689;48.390;10.856;2023-01-19T01:53:16;95064.41;;;-0.68;99.32
42001;BME280;27689;48.390;10.856;2023-01-19T01:56:05;95066.59;;;-0.75;99.77
42001;BME280;27689;48.390;10.856;2023-01-19T01:58:50;95066.66;;;-0.64;98.21
42001;BME280;27689;48.390;10.856;2023-01-19T02:01:35;95065.41;;;-0.58;96.97
42001;BME280;27689;48.390;10.856;2023-01-19T02:04:39;95068.00;;;-0.71;97.64
42001;BME280;27689;48.390;10.856;2023-01-19T02:07:41;95066.78;;;-0.78;97.94
42001;BME280;27689;48.390;10.856;2023-01-19T02:10:45;95070.38;;;-0.68;97.77
42001;BME280;27689;48.390;10.856;2023-01-19T02:13:49;95072.75;;;-0.78;98.17
42001;BME280;27689;48.390;10.856;2023-01-19T02:16:33;95076.25;;;-0.79;97.86
42001;BME280;27689;48.390;10.856;2023-01-19T02:19:23;95069.97;;;-0.75;97.70
42001;BME280;27689;48.390;10.856;2023-01-19T02:24:55;95088.78;;;-0.99;98.54
42001;BME280;27689;48.390;10.856;2023-01-19T02:27:39;95086.09;;;-0.98;99.08
42001;BME280;27689;48.390;10.856;2023-01-19T02:30:23;95077.88;;;-1.03;98.92
42001;BME280;27689;48.390;10.856;2023-01-19T02:33:07;95086.63;;;-1.05;99.68
42001;BME280;27689;48.390;10.856;2023-01-19T02:35:51;95085.00;;;-1.07;99.54
42001;BME280;27689;48.390;10.856;2023-01-19T02:38:39;95096.00;;;-1.04;99.22
42001;BME280;27689;48.390;10.856;2023-01-19T02:41:31;95090.13;;;-1.07;99.43
42001;BME280;27689;48.390;10.856;2023-01-19T02:44:17;95095.38;;;-1.08;98.85
42001;BME280;27689;48.390;10.856;2023-01-19T02:47:03;95094.13;;;-1.02;99.30
42001;BME280;27689;48.390;10.856;2023-01-19T02:49:56;95097.59;;;-1.03;98.75
42001;BME280;27689;48.390;10.856;2023-01-19T02:52:40;95094.44;;;-1.07;98.19
42001;BME280;27689;48.390;10.856;2023-01-19T02:55:27;95098.13;;;-1.11;98.89
42001;BME280;27689;48.390;10.856;2023-01-19T02:58:22;95096.28;;;-1.09;98.47
42001;BME280;27689;48.390;10.856;2023-01-19T03:01:20;95106.97;;;-1.15;98.59
42001;BME280;27689;48.390;10.856;2023-01-19T03:04:37;95098.75;;;-1.08;97.08
42001;BME280;27689;48.390;10.856;2023-01-19T03:10:16;95107.59;;;-1.12;97.73
42001;BME280;27689;48.390;10.856;2023-01-19T03:13:10;95097.13;;;-1.09;97.17
42001;BME280;27689;48.390;10.856;2023-01-19T03:16:05;95107.59;;;-1.12;97.08
42001;BME280;27689;48.390;10.856;2023-01-19T03:19:17;95112.72;;;-1.12;97.25
42001;BME280;27689;48.390;10.856;2023-01-19T03:22:08;95109.03;;;-1.20;96.99
42001;BME280;27689;48.390;10.856;2023-01-19T03:24:55;95108.50;;;-1.25;97.24
42001;BME280;27689;48.390;10.856;2023-01-19T03:27:42;95105.00;;;-1.24;96.71
42001;BME280;27689;48.390;10.856;2023-01-19T03:30:34;95102.81;;;-1.43;97.74
42001;BME280;27689;48.390;10.856;2023-01-19T03:33:25;95106.94;;;-1.40;97.78
42001;BME280;27689;48.390;10.856;2023-01-19T03:36:15;95096.75;;;-1.42;97.36
42001;BME280;27689;48.390;10.856;2023-01-19T03:39:02;95105.00;;;-1.37;97.25
42001;BME280;27689;48.390;10.856;2023-01-19T03:41:49;95106.47;;;-1.47;96.87
42001;BME280;27689;48.390;10.856;2023-01-19T03:44:36;95103.53;;;-1.41;96.65
42001;BME280;27689;48.390;10.856;2023-01-19T03:47:22;95102.28;;;-1.48;96.43
42001;BME280;27689;48.390;10.856;2023-01-19T03:50:10;95107.13;;;-1.44;96.34
42001;BME280;27689;48.390;10.856;2023-01-19T03:53:07;95109.47;;;-1.53;96.37
42001;BME280;27689;48.390;10.856;2023-01-19T03:55:51;95115.72;;;-1.57;96.14
42001;BME280;27689;48.390;10.856;2023-01-19T03:58:36;95119.28;;;-1.60;96.67
42001;BME280;27689;48.390;10.856;2023-01-19T04:01:20;95127.19;;;-1.63;96.07
42001;BME280;27689;48.390;10.856;2023-01-19T04:04:05;95125.84;;;-1.68;97.15
42001;BME280;27689;48.390;10.856;2023-01-19T04:06:49;95125.44;;;-1.62;96.85
42001;BME280;27689;48.390;10.856;2023-01-19T04:09:34;95123.00;;;-1.64;96.98
42001;BME280;27689;48.390;10.856;2023-01-19T04:12:18;95112.41;;;-1.59;96.29
42001;BME280;27689;48.390;10.856;2023-01-19T04:15:02;95123.81;;;-1.63;96.13
42001;BME280;27689;48.390;10.856;2023-01-19T04:17:45;95106.59;;;-1.75;96.63
42001;BME280;27689;48.390;10.856;2023-01-19T04:20:29;95121.69;;;-1.84;96.94
42001;BME280;27689;48.390;10.856;2023-01-19T04:23:13;95126.28;;;-1.89;97.17
42001;BME280;27689;48.390;10.856;2023-01-19T04:26:03;95121.78;;;-1.85;97.33
42001;BME280;27689;48.390;10.856;2023-01-19T04:28:47;95119.66;;;-1.79;96.66
42001;BME280;27689;48.390;10.856;2023-01-19T04:31:31;95119.75;;;-1.80;96.19
42001;BME280;27689;48.390;10.856;2023-01-19T04:34:15;95123.38;;;-1.97;96.75
42001;BME280;27689;48.390;10.856;2023-01-19T04:36:59;95121.72;;;-1.98;97.23
42001;BME280;27689;48.390;10.856;2023-01-19T04:39:43;95122.84;;;-2.02;97.39
42001;BME280;27689;48.390;10.856;2023-01-19T04:42:27;95121.38;;;-2.06;97.43
42001;BME280;27689;48.390;10.856;2023-01-19T04:45:12;95135.72;;;-1.89;97.04
42001;BME280;27689;48.390;10.856;2023-01-19T04:47:56;95135.91;;;-1.92;96.39
42001;BME280;27689;48.390;10.856;2023-01-19T04:50:40;95127.31;;;-2.05;96.80
42001;BME280;27689;48.390;10.856;2023-01-19T04:53:24;95135.69;;;-2.16;97.75
42001;BME280;27689;48.390;10.856;2023-01-19T04:56:08;95135.03;;;-2.20;98.36
42001;BME280;27689;48.390;10.856;2023-01-19T04:58:52;95140.81;;;-2.16;98.35
42001;BME280;27689;48.390;10.856;2023-01-19T05:01:36;95137.25;;;-2.14;98.01
42001;BME280;27689;48.390;10.856;2023-01-19T05:04:20;95130.47;;;-2.15;98.20
42001;BME280;27689;48.390;10.856;2023-01-19T05:07:05;95136.50;;;-2.16;98.11
42001;BME280;27689;48.390;10.856;2023-01-19T05:09:49;95136.50;;;-2.16;97.85
42001;BME280;27689;48.390;10.856;2023-01-19T05:12:33;95134.03;;;-2.17;98.34
42001;BME280;27689;48.390;10.856;2023-01-19T05:15:16;95135.97;;;-2.21;97.82
42001;BME280;27689;48.390;10.856;2023-01-19T05:18:01;95131.38;;;-2.16;97.12
42001;BME280;27689;48.390;10.856;2023-01-19T05:20:45;95129.56;;;-2.14;97.58
42001;BME280;27689;48.390;10.856;2023-01-19T05:23:29;95123.44;;;-2.25;97.30
42001;BME280;27689;48.390;10.856;2023-01-19T05:26:14;95142.69;;;-2.32;97.81
42001;BME280;27689;48.390;10.856;2023-01-19T05:28:58;95142.03;;;-2.36;97.87
42001;BME280;27689;48.390;10.856;2023-01-19T05:31:42;95141.59;;;-2.42;98.48
42001;BME280;27689;48.390;10.856;2023-01-19T05:34:26;95142.59;;;-2.45;98.99
42001;BME280;27689;48.390;10.856;2023-01-19T05:37:10;95142.34;;;-2.55;98.56
42001;BME280;27689;48.390;10.856;2023-01-19T05:39:54;95141.78;;;-2.60;98.26
42001;BME280;27689;48.390;10.856;2023-01-19T05:42:38;95132.34;;;-2.59;98.77
42001;BME280;27689;48.390;10.856;2023-01-19T05:45:22;95141.03;;;-2.62;98.80
42001;BME280;27689;48.390;10.856;2023-01-19T05:48:07;95144.44;;;-2.61;98.79
42001;BME280;27689;48.390;10.856;2023-01-19T05:50:56;95147.25;;;-2.66;99.28
42001;BME280;27689;48.390;10.856;2023-01-19T05:53:40;95144.81;;;-2.67;99.05
42001;BME280;27689;48.390;10.856;2023-01-19T05:56:24;95152.28;;;-2.64;99.20
42001;BME280;27689;48.390;10.856;2023-01-19T05:59:08;95151.56;;;-2.66;98.96
42001;BME280;27689;48.390;10.856;2023-01-19T06:01:52;95147.06;;;-2.77;98.34
42001;BME280;27689;48.390;10.856;2023-01-19T06:04:37;95161.63;;;-2.77;98.68
42001;BME280;27689;48.390;10.856;2023-01-19T06:07:21;95152.38;;;-2.80;98.95
42001;BME280;27689;48.390;10.856;2023-01-19T06:10:05;95158.69;;;-2.86;98.88
42001;BME280;27689;48.390;10.856;2023-01-19T06:12:49;95156.41;;;-2.90;99.28
42001;BME280;27689;48.390;10.856;2023-01-19T06:15:35;95169.56;;;-2.96;98.72
42001;BME280;27689;48.390;10.856;2023-01-19T06:18:20;95159.75;;;-3.04;99.38
42001;BME280;27689;48.390;10.856;2023-01-19T06:21:05;95166.78;;;-3.07;99.39
42001;BME280;27689;48.390;10.856;2023-01-19T06:23:50;95171.38;;;-3.12;100.00
42001;BME280;27689;48.390;10.856;2023-01-19T06:26:34;95169.88;;;-3.16;100.00
42001;BME280;27689;48.390;10.856;2023-01-19T06:29:18;95175.75;;;-3.14;100.00
42001;BME280;27689;48.390;10.856;2023-01-19T06:32:02;95184.25;;;-3.14;100.00
42001;BME280;27689;48.390;10.856;2023-01-19T06:34:46;95194.06;;;-3.06;100.00
42001;BME280;27689;48.390;10.856;2023-01-19T06:37:29;95201.41;;;-3.00;100.00
42001;BME280;27689;48.390;10.856;2023-01-19T06:40:14;95200.28;;;-2.96;99.57
42001;BME280;27689;48.390;10.856;2023-01-19T06:42:58;95212.47;;;-3.00;99.71
42001;BME280;27689;48.390;10.856;2023-01-19T06:45:42;95214.03;;;-2.97;99.41
42001;BME280;27689;48.390;10.856;2023-01-19T06:48:25;95213.84;;;-2.94;98.95
42001;BME280;27689;48.390;10.856;2023-01-19T06:51:09;95202.78;;;-2.95;98.90
42001;BME280;27689;48.390;10.856;2023-01-19T06:53:53;95207.84;;;-2.79;98.11
42001;BME280;27689;48.390;10.856;2023-01-19T06:56:37;95211.69;;;-2.86;97.68
42001;BME280;27689;48.390;10.856;2023-01-19T06:59:21;95223.34;;;-2.96;98.47
42001;BME280;27689;48.390;10.856;2023-01-19T07:02:05;95224.75;;;-2.91;97.65
42001;BME280;27689;48.390;10.856;2023-01-19T07:04:49;95225.91;;;-2.96;97.85
42001;BME280;27689;48.390;10.856;2023-01-19T07:07:33;95238.56;;;-2.93;98.41
42001;BME280;27689;48.390;10.856;2023-01-19T07:10:17;95227.75;;;-2.98;98.49
42001;BME280;27689;48.390;10.856;2023-01-19T07:13:00;95231.31;;;-3.01;98.68
42001;BME280;27689;48.390;10.856;2023-01-19T07:15:44;95238.56;;;-2.93;98.66
42001;BME280;27689;48.390;10.856;2023-01-19T07:18:28;95236.06;;;-2.95;98.28
42001;BME280;27689;48.390;10.856;2023-01-19T07:21:13;95237.19;;;-2.99;98.17
42001;BME280;27689;48.390;10.856;2023-01-19T07:23:57;95240.22;;;-2.92;97.75
42001;BME280;27689;48.390;10.856;2023-01-19T07:26:41;95236.41;;;-2.85;97.36
42001;BME280;27689;48.390;10.856;2023-01-19T07:29:25;95245.09;;;-2.88;96.22
42001;BME280;27689;48.390;10.856;2023-01-19T07:32:09;95250.13;;;-2.86;95.94
42001;BME280;27689;48.390;10.856;2023-01-19T07:34:52;95243.53;;;-2.76;95.66
42001;BME280;27689;48.390;10.856;2023-01-19T07:37:36;95246.47;;;-2.82;95.80
42001;BME280;27689;48.390;10.856;2023-01-19T07:40:20;95239.16;;;-2.74;95.49
42001;BME280;27689;48.390;10.856;2023-01-19T07:43:04;95234.38;;;-2.80;95.34
42001;BME280;27689;48.390;10.856;2023-01-19T07:45:48;95249.50;;;-2.75;95.14
42001;BME280;27689;48.390;10.856;2023-01-19T07:48:32;95249.25;;;-2.71;94.95
42001;BME280;27689;48.390;10.856;2023-01-19T07:51:16;95249.59;;;-2.77;94.75
42001;BME280;27689;48.390;10.856;2023-01-19T07:54:02;95259.66;;;-2.74;95.23
42001;BME280;27689;48.390;10.856;2023-01-19T07:56:46;95262.41;;;-2.77;95.48
42001;BME280;27689;48.390;10.856;2023-01-19T07:59:30;95273.22;;;-2.72;95.62
42001;BME280;27689;48.390;10.856;2023-01-19T08:02:14;95260.94;;;-2.67;95.29
42001;BME280;27689;48.390;10.856;2023-01-19T08:04:58;95264.44;;;-2.68;95.41
42001;BME280;27689;48.390;10.856;2023-01-19T08:07:42;95268.47;;;-2.64;95.50
42001;BME280;27689;48.390;10.856;2023-01-19T08:10:27;95272.03;;;-2.66;95.79
42001;BME280;27689;48.390;10.856;2023-01-19T08:13:11;95279.84;;;-2.68;95.46
42001;BME280;27689;48.390;10.856;2023-01-19T08:15:55;95277.47;;;-2.57;95.45
42001;BME280;27689;48.390;10.856;2023-01-19T08:18:39;95270.31;;;-2.52;95.21
42001;BME280;27689;48.390;10.856;2023-01-19T08:21:23;95279.50;;;-2.47;95.46
42001;BME280;27689;48.390;10.856;2023-01-19T08:24:16;95287.13;;;-2.32;93.74
42001;BME280;27689;48.390;10.856;2023-01-19T08:27:01;95289.41;;;-2.27;93.81
42001;BME280;27689;48.390;10.856;2023-01-19T08:29:46;95284.56;;;-2.18;93.70
42001;BME280;27689;48.390;10.856;2023-01-19T08:32:30;95285.66;;;-2.07;92.96
42001;BME280;27689;48.390;10.856;2023-01-19T08:35:15;95285.78;;;-1.95;91.90
42001;BME280;27689;48.390;10.856;2023-01-19T08:37:59;95291.75;;;-1.94;91.39
42001;BME280;27689;48.390;10.856;2023-01-19T08:40:44;95292.75;;;-1.83;90.98
42001;BME280;27689;48.390;10.856;2023-01-19T08:43:28;95287.31;;;-1.92;91.35
42001;BME280;27689;48.390;10.856;2023-01-19T08:46:13;95297.38;;;-1.75;90.71
42001;BME280;27689;48.390;10.856;2023-01-19T08:48:59;95293.63;;;-1.69;89.95
42001;BME280;27689;48.390;10.856;2023-01-19T08:51:43;95301.44;;;-1.71;90.75
42001;BME280;27689;48.390;10.856;2023-01-19T08:54:29;95303.34;;;-1.60;89.75
42001;BME280;27689;48.390;10.856;2023-01-19T08:57:13;95300.31;;;-1.53;89.91
42001;BME280;27689;48.390;10.856;2023-01-19T08:59:57;95304.25;;;-1.47;90.13
42001;BME280;27689;48.390;10.856;2023-01-19T09:02:41;95298.91;;;-1.44;90.32
42001;BME280;27689;48.390;10.856;2023-01-19T09:05:25;95300.34;;;-1.26;89.00
42001;BME280;27689;48.390;10.856;2023-01-19T09:08:11;95310.47;;;-1.37;89.58
42001;BME280;27689;48.390;10.856;2023-01-19T09:10:56;95303.00;;;-1.27;88.78
42001;BME280;27689;48.390;10.856;2023-01-19T09:13:40;95309.53;;;-1.22;89.01
42001;BME280;27689;48.390;10.856;2023-01-19T09:16:24;95303.91;;;-1.14;88.76
42001;BME280;27689;48.390;10.856;2023-01-19T09:19:09;95310.03;;;-1.17;88.43
42001;BME280;27689;48.390;10.856;2023-01-19T09:21:53;95310.78;;;-1.15;88.47
42001;BME280;27689;48.390;10.856;2023-01-19T09:24:38;95307.25;;;-0.99;88.93
42001;BME280;27689;48.390;10.856;2023-01-19T09:27:22;95301.84;;;-0.82;88.33
42001;BME280;27689;48.390;10.856;2023-01-19T09:30:07;95303.34;;;-0.65;85.33
42001;BME280;27689;48.390;10.856;2023-01-19T09:32:54;95306.34;;;-0.59;86.94
42001;BME280;27689;48.390;10.856;2023-01-19T09:35:39;95308.63;;;-0.54;85.74
42001;BME280;27689;48.390;10.856;2023-01-19T09:38:23;95295.09;;;-0.31;86.56
42001;BME280;27689;48.390;10.856;2023-01-19T09:41:16;95303.22;;;-0.24;85.57
42001;BME280;27689;48.390;10.856;2023-01-19T09:44:03;95297.88;;;-0.09;82.81
42001;BME280;27689;48.390;10.856;2023-01-19T09:46:47;95304.88;;;0.02;82.00
42001;BME280;27689;48.390;10.856;2023-01-19T09:49:34;95302.72;;;0.21;81.79
42001;BME280;27689;48.390;10.856;2023-01-19T09:52:19;95293.22;;;0.34;82.68
42001;BME280;27689;48.390;10.856;2023-01-19T09:55:17;95304.09;;;0.51;79.74
42001;BME280;27689;48.390;10.856;2023-01-19T09:58:05;95300.78;;;0.61;81.46
42001;BME280;27689;48.390;10.856;2023-01-19T10:01:00;95288.00;;;0.73;78.98
42001;BME280;27689;48.390;10.856;2023-01-19T10:03:51;95285.31;;;0.98;79.53
42001;BME280;27689;48.390;10.856;2023-01-19T10:06:41;95293.09;;;1.09;77.32
42001;BME280;27689;48.390;10.856;2023-01-19T10:09:50;95286.81;;;1.13;78.15
42001;BME280;27689;48.390;10.856;2023-01-19T10:13:07;95291.28;;;1.46;74.39
42001;BME280;27689;48.390;10.856;2023-01-19T10:16:08;95294.81;;;1.45;76.22
42001;BME280;27689;48.390;10.856;2023-01-19T10:22:04;95296.72;;;1.65;73.93
42001;BME280;27689;48.390;10.856;2023-01-19T10:25:01;95294.72;;;1.58;74.37
42001;BME280;27689;48.390;10.856;2023-01-19T10:27:49;95294.31;;;1.75;73.04
42001;BME280;27689;48.390;10.856;2023-01-19T10:30:33;95281.22;;;1.54;73.46
42001;BME280;27689;48.390;10.856;2023-01-19T10:33:17;95283.66;;;1.45;74.17
42001;BME280;27689;48.390;10.856;2023-01-19T10:36:09;95283.06;;;1.52;73.56
42001;BME280;27689;48.390;10.856;2023-01-19T10:38:58;95285.38;;;1.79;73.86
42001;BME280;27689;48.390;10.856;2023-01-19T10:41:52;95283.19;;;1.97;73.00
42001;BME280;27689;48.390;10.856;2023-01-19T10:44:37;95279.56;;;2.10;72.67
42001;BME280;27689;48.390;10.856;2023-01-19T10:47:29;95279.66;;;1.98;69.92
42001;BME280;27689;48.390;10.856;2023-01-19T10:50:31;95275.59;;;2.18;72.63
42001;BME280;27689;48.390;10.856;2023-01-19T10:53:21;95275.81;;;2.26;70.69
42001;BME280;27689;48.390;10.856;2023-01-19T10:56:15;95281.13;;;2.35;69.63
42001;BME280;27689;48.390;10.856;2023-01-19T10:59:01;95270.78;;;2.46;69.24
42001;BME280;27689;48.390;10.856;2023-01-19T11:02:01;95272.66;;;2.44;69.86
42001;BME280;27689;48.390;10.856;2023-01-19T11:04:47;95276.06;;;2.34;68.44
42001;BME280;27689;48.390;10.856;2023-01-19T11:07:32;95268.91;;;2.48;70.18
42001;BME280;27689;48.390;10.856;2023-01-19T11:13:04;95268.16;;;2.58;68.77
42001;BME280;27689;48.390;10.856;2023-01-19T11:15:53;95270.19;;;2.65;67.50
42001;BME280;27689;48.390;10.856;2023-01-19T11:18:40;95266.66;;;2.66;67.58
42001;BME280;27689;48.390;10.856;2023-01-19T11:21:28;95255.53;;;2.87;67.65
42001;BME280;27689;48.390;10.856;2023-01-19T11:24:13;95265.09;;;2.53;67.06
42001;BME280;27689;48.390;10.856;2023-01-19T11:26:59;95264.31;;;2.52;67.98
42001;BME280;27689;48.390;10.856;2023-01-19T11:30:01;95259.84;;;2.65;68.69
42001;BME280;27689;48.390;10.856;2023-01-19T11:32:48;95261.84;;;2.28;67.98
42001;BME280;27689;48.390;10.856;2023-01-19T11:35:38;95255.03;;;2.16;67.94
42001;BME280;27689;48.390;10.856;2023-01-19T11:38:23;95250.09;;;1.91;68.30
42001;BME280;27689;48.390;10.856;2023-01-19T11:41:17;95242.56;;;1.88;69.36
42001;BME280;27689;48.390;10.856;2023-01-19T11:44:32;95245.97;;;1.88;68.12
42001;BME280;27689;48.390;10.856;2023-01-19T11:47:27;95247.63;;;2.00;67.78
42001;BME280;27689;48.390;10.856;2023-01-19T11:50:56;95253.13;;;1.85;67.82
42001;BME280;27689;48.390;10.856;2023-01-19T11:53:33;95251.13;;;1.77;69.69
42001;BME280;27689;48.390;10.856;2023-01-19T11:56:21;95240.00;;;1.99;67.31
42001;BME280;27689;48.390;10.856;2023-01-19T11:59:10;95248.00;;;2.07;68.42
42001;BME280;27689;48.390;10.856;2023-01-19T12:01:58;95244.94;;;2.02;67.14
42001;BME280;27689;48.390;10.856;2023-01-19T12:04:44;95246.78;;;1.77;67.04
42001;BME280;27689;48.390;10.856;2023-01-19T12:07:33;95241.63;;;1.89;68.08
42001;BME280;27689;48.390;10.856;2023-01-19T12:10:23;95248.41;;;1.78;68.12
42001;BME280;27689;48.390;10.856;2023-01-19T12:13:19;95232.78;;;1.23;69.80
42001;BME280;27689;48.390;10.856;2023-01-19T12:16:19;95247.25;;;1.36;71.38
42001;BME280;27689;48.390;10.856;2023-01-19T12:19:16;95241.44;;;1.46;70.94
42001;BME280;27689;48.390;10.856;2023-01-19T12:22:02;95238.25;;;1.42;70.49
42001;BME280;27689;48.390;10.856;2023-01-19T12:24:59;95247.22;;;1.71;70.32
42001;BME280;27689;48.390;10.856;2023-01-19T12:27:46;95232.47;;;1.85;71.05
42001;BME280;27689;48.390;10.856;2023-01-19T12:30:31;95241.13;;;1.61;69.95
42001;BME280;27689;48.390;10.856;2023-01-19T12:33:42;95243.59;;;1.74;70.19
42001;BME280;27689;48.390;10.856;2023-01-19T12:39:21;95235.53;;;1.32;70.90
42001;BME280;27689;48.390;10.856;2023-01-19T12:42:14;95231.88;;;1.35;71.83
42001;BME280;27689;48.390;10.856;2023-01-19T12:45:07;95230.91;;;1.60;72.25
42001;BME280;27689;48.390;10.856;2023-01-19T12:47:56;95236.28;;;1.46;70.47
42001;BME280;27689;48.390;10.856;2023-01-19T12:50:44;95235.53;;;1.32;69.90
42001;BME280;27689;48.390;10.856;2023-01-19T12:53:28;95239.88;;;1.32;69.73
42001;BME280;27689;48.390;10.856;2023-01-19T12:56:14;95227.91;;;1.31;70.53
42001;BME280;27689;48.390;10.856;2023-01-19T12:59:00;95236.91;;;1.25;70.45
42001;BME280;27689;48.390;10.856;2023-01-19T13:08:12;95232.47;;;1.27;71.37
42001;BME280;27689;48.390;10.856;2023-01-19T13:14:33;95233.53;;;1.36;71.12
42001;BME280;27689;48.390;10.856;2023-01-19T13:16:58;95241.13;;;1.61;71.14
42001;BME280;27689;48.390;10.856;2023-01-19T13:19:46;95229.69;;;1.53;69.77
42001;BME280;27689;48.390;10.856;2023-01-19T13:25:31;95230.47;;;1.31;69.37
42001;BME280;27689;48.390;10.856;2023-01-19T13:28:19;95232.97;;;1.09;70.43
42001;BME280;27689;48.390;10.856;2023-01-19T13:31:07;95233.28;;;1.28;70.23
42001;BME280;27689;48.390;10.856;2023-01-19T13:33:58;95232.78;;;1.23;70.42
42001;BME280;27689;48.390;10.856;2023-01-19T13:36:45;95238.78;;;1.34;70.85
42001;BME280;27689;48.390;10.856;2023-01-19T13:39:39;95240.13;;;1.40;69.45
42001;BME280;27689;48.390;10.856;2023-01-19T13:42:32;95234.25;;;1.38;68.94
42001;BME280;27689;48.390;10.856;2023-01-19T13:45:33;95235.97;;;1.26;69.52
42001;BME280;27689;48.390;10.856;2023-01-19T13:48:20;95234.53;;;1.22;69.72
42001;BME280;27689;48.390;10.856;2023-01-19T13:51:09;95245.56;;;1.24;69.80
42001;BME280;27689;48.390;10.856;2023-01-19T13:53:59;95235.75;;;1.29;70.42
42001;BME280;27689;48.390;10.856;2023-01-19T13:56:47;95233.91;;;1.42;68.91
42001;BME280;27689;48.390;10.856;2023-01-19T13:59:33;95241.03;;;1.28;68.87
42001;BME280;27689;48.390;10.856;2023-01-19T14:02:17;95232.31;;;1.18;68.94
42001;BME280;27689;48.390;10.856;2023-01-19T14:05:15;95255.53;;;1.18;69.69
42001;BME280;27689;48.390;10.856;2023-01-19T14:13:43;95251.59;;;1.01;70.34
42001;BME280;27689;48.390;10.856;2023-01-19T14:16:29;95250.91;;;1.10;69.70
42001;BME280;27689;48.390;10.856;2023-01-19T14:19:13;95252.56;;;1.11;69.73
42001;BME280;27689;48.390;10.856;2023-01-19T14:22:03;95259.25;;;1.14;69.19
42001;BME280;27689;48.390;10.856;2023-01-19T14:24:47;95250.97;;;0.97;69.92
42001;BME280;27689;48.390;10.856;2023-01-19T14:27:31;95252.78;;;1.08;70.61
42001;BME280;27689;48.390;10.856;2023-01-19T14:30:21;95246.78;;;1.08;70.54
42001;BME280;27689;48.390;10.856;2023-01-19T14:33:06;95242.97;;;1.13;71.21
42001;BME280;27689;48.390;10.856;2023-01-19T14:35:54;95247.09;;;1.27;70.20
42001;BME280;27689;48.390;10.856;2023-01-19T14:38:42;95258.75;;;1.09;69.99
42001;BME280;27689;48.390;10.856;2023-01-19T14:41:43;95251.00;;;1.09;69.85
42001;BME280;27689;48.390;10.856;2023-01-19T14:44:34;95252.69;;;1.21;69.60
42001;BME280;27689;48.390;10.856;2023-01-19T14:47:40;95253.88;;;0.93;69.86
42001;BME280;27689;48.390;10.856;2023-01-19T14:50:30;95259.03;;;0.93;70.46
42001;BME280;27689;48.390;10.856;2023-01-19T14:53:18;95259.59;;;0.85;70.97
42001;BME280;27689;48.390;10.856;2023-01-19T14:56:04;95256.56;;;0.91;70.62
42001;BME280;27689;48.390;10.856;2023-01-19T14:58:49;95260.53;;;0.84;71.05
42001;BME280;27689;48.390;10.856;2023-01-19T15:01:33;95254.13;;;0.77;70.76
42001;BME280;27689;48.390;10.856;2023-01-19T15:04:17;95259.28;;;0.77;70.66
42001;BME280;27689;48.390;10.856;2023-01-19T15:07:01;95261.88;;;0.77;70.89
42001;BME280;27689;48.390;10.856;2023-01-19T15:09:46;95266.56;;;0.72;71.31